Time;durP1;ratioP1;P1;durP2;ratioP2;P2;SDS_P1;SDS_P2;PMS_P1;PMS_P2;Temp;Humidity;BMP_temperature;BMP_pressure;BME280_temperature;BME280_humidity;BME280_pressure;Samples;Min_cycle;Max_cycle;Signal;HPM_P1;HPM_P2
2022/05/06 00:01:53;;;;;;;4.63;2.63;;;;;;;15.08;59.89;100226.22;5133584;27;20275;-68
2022/05/06 00:04:21;;;;;;;3.27;2.60;;;;;;;15.13;60.03;100220.28;5132492;27;20193;-69
2022/05/06 00:06:48;;;;;;;3.00;2.80;;;;;;;15.21;59.73;100220.06;5132518;27;20250;-69
2022/05/06 00:09:14;;;;;;;4.10;2.83;;;;;;;15.19;59.37;100222.94;5131547;27;20250;-67
2022/05/06 00:11:41;;;;;;;3.30;2.80;;;;;;;15.21;59.53;100225.41;5131632;27;20250;-68
2022/05/06 00:14:08;;;;;;;8.33;2.70;;;;;;;15.17;58.98;100230.38;5131948;27;20258;-68
2022/05/06 00:16:35;;;;;;;8.00;3.13;;;;;;;15.13;59.84;100234.47;5132078;27;20190;-69
2022/05/06 00:19:01;;;;;;;3.27;2.80;;;;;;;15.13;59.97;100231.81;5131679;27;20198;-69
2022/05/06 00:21:29;;;;;;;3.40;2.63;;;;;;;15.09;60.14;100227.91;5131404;27;20762;-69
2022/05/06 00:23:56;;;;;;;2.70;2.43;;;;;;;15.03;59.84;100227.91;5131687;27;20258;-67
2022/05/06 00:26:23;;;;;;;2.33;2.20;;;;;;;15.06;59.91;100233.66;5131806;27;20229;-67
2022/05/06 00:28:49;;;;;;;2.43;2.33;;;;;;;15.03;59.22;100228.72;5131738;27;20639;-67
2022/05/06 00:31:16;;;;;;;6.53;2.57;;;;;;;14.96;60.19;100233.22;5131995;27;20250;-67
2022/05/06 00:33:43;;;;;;;2.80;2.00;;;;;;;15.03;59.66;100239.41;5131377;27;20730;-67
2022/05/06 00:36:10;;;;;;;5.03;2.50;;;;;;;15.12;59.67;100238.16;5131968;27;20658;-67
2022/05/06 00:38:39;;;;;;;3.10;2.70;;;;;;;15.16;58.85;100244.75;5131754;27;20186;-68
2022/05/06 00:41:06;;;;;;;3.00;2.80;;;;;;;14.92;59.53;100242.72;5131515;27;20658;-68
2022/05/06 00:43:32;;;;;;;3.00;2.70;;;;;;;15.01;59.53;100244.16;5132089;27;20217;-69
2022/05/06 00:45:59;;;;;;;2.50;2.40;;;;;;;15.09;59.48;100235.94;5132057;27;20186;-68
2022/05/06 00:48:27;;;;;;;2.73;2.50;;;;;;;15.16;58.63;100228.69;5131638;27;20710;-67
2022/05/06 00:50:58;;;;;;;3.90;2.73;;;;;;;15.21;58.68;100238.78;5131864;27;20246;-67
2022/05/06 00:53:25;;;;;;;4.80;2.63;;;;;;;15.27;58.54;100251.31;5132194;27;20278;-68
2022/05/06 00:55:55;;;;;;;2.67;2.40;;;;;;;15.29;58.22;100250.13;5131749;27;20333;-68
2022/05/06 00:58:24;;;;;;;3.23;3.00;;;;;;;15.33;57.89;100245.16;5131742;27;20182;-68
2022/05/06 01:00:51;;;;;;;3.03;2.50;;;;;;;15.36;57.72;100256.28;5132116;27;20277;-68
2022/05/06 01:03:18;;;;;;;4.97;2.90;;;;;;;15.39;57.27;100249.69;5131960;27;20218;-67
2022/05/06 01:05:44;;;;;;;4.03;2.63;;;;;;;15.38;57.59;100248.91;5132498;27;20190;-68
2022/05/06 01:08:11;;;;;;;2.50;2.30;;;;;;;15.39;58.36;100249.69;5132884;27;20189;-67
2022/05/06 01:10:38;;;;;;;5.57;3.37;;;;;;;15.34;58.33;100255.69;5132463;27;20243;-68
2022/05/06 01:13:06;;;;;;;3.03;2.80;;;;;;;15.28;59.50;100253.81;5132861;27;20251;-68
2022/05/06 01:15:33;;;;;;;5.10;2.93;;;;;;;15.17;60.88;100246.41;5132593;27;20261;-68
2022/05/06 01:18:00;;;;;;;3.97;2.70;;;;;;;15.10;60.78;100250.94;5132696;27;20281;-68
2022/05/06 01:20:27;;;;;;;5.67;2.77;;;;;;;15.13;59.85;100255.06;5133728;27;20258;-68
2022/05/06 01:22:58;;;;;;;3.43;3.13;;;;;;;15.12;59.65;100258.78;5136224;27;20781;-68
2022/05/06 01:25:26;;;;;;;4.93;3.30;;;;;;;15.11;59.81;100254.47;5136533;27;20322;-69
2022/05/06 01:27:56;;;;;;;7.80;3.13;;;;;;;15.08;59.51;100253.00;5136141;27;20236;-68
2022/05/06 01:30:30;;;;;;;3.37;3.07;;;;;;;15.06;59.09;100249.72;5136102;27;20705;-69
2022/05/06 01:32:58;;;;;;;8.17;3.37;;;;;;;15.02;60.41;100247.63;5136618;27;20197;-68
2022/05/06 01:35:27;;;;;;;3.03;2.53;;;;;;;14.96;61.26;100243.94;5136158;27;20574;-67
2022/05/06 01:37:59;;;;;;;2.90;2.70;;;;;;;14.92;61.75;100250.75;5136130;27;20248;-67
2022/05/06 01:40:28;;;;;;;4.13;2.97;;;;;;;14.87;61.89;100250.53;5136749;27;20181;-67
2022/05/06 01:42:58;;;;;;;9.63;3.17;;;;;;;14.81;62.31;100245.16;5137174;27;20222;-67
2022/05/06 01:45:26;;;;;;;4.23;3.93;;;;;;;14.72;60.89;100247.25;5135941;27;20242;-67
2022/05/06 01:47:53;;;;;;;4.63;3.30;;;;;;;14.58;61.16;100242.06;5135970;27;20757;-67
2022/05/06 01:50:22;;;;;;;5.87;3.00;;;;;;;14.59;61.68;100244.53;5136307;27;20634;-66
2022/05/06 01:52:50;;;;;;;20.23;4.13;;;;;;;14.56;60.96;100230.75;5136221;27;20202;-67
2022/05/06 01:55:19;;;;;;;7.97;3.80;;;;;;;14.56;62.32;100230.75;5137000;27;20281;-66
2022/05/06 01:57:45;;;;;;;3.87;3.50;;;;;;;14.52;63.08;100230.34;5136129;27;20186;-67
2022/05/06 02:00:13;;;;;;;6.10;3.50;;;;;;;14.51;62.74;100234.03;5136990;27;20189;-67
2022/05/06 02:02:41;;;;;;;5.07;3.73;;;;;;;14.51;63.71;100227.88;5135967;27;20308;-67
2022/05/06 02:05:19;;;;;;;3.70;3.40;;;;;;;14.49;64.11;100236.09;5135766;27;20190;-67
2022/05/06 02:07:48;;;;;;;4.40;3.53;;;;;;;14.43;64.70;100236.91;5136312;27;20178;-67
2022/05/06 02:10:15;;;;;;;4.20;3.90;;;;;;;14.29;64.77;100231.75;5135713;27;20197;-67
2022/05/06 02:12:44;;;;;;;4.00;3.57;;;;;;;14.20;65.29;100230.22;5135602;27;20328;-67
2022/05/06 02:15:12;;;;;;;4.73;3.70;;;;;;;14.10;66.92;100227.91;5136504;27;20194;-67
2022/05/06 02:17:39;;;;;;;7.50;3.60;;;;;;;14.11;67.50;100226.91;5135634;27;20271;-67
2022/05/06 02:20:08;;;;;;;3.93;3.33;;;;;;;14.13;67.73;100243.56;5135455;27;20280;-67
2022/05/06 02:22:36;;;;;;;6.47;3.70;;;;;;;14.04;68.24;100236.75;5134622;27;20228;-67
2022/05/06 02:25:04;;;;;;;3.90;3.60;;;;;;;13.94;69.29;100230.13;5135188;27;20189;-67
2022/05/06 02:27:31;;;;;;;4.87;4.00;;;;;;;13.94;68.90;100238.16;5135061;27;20193;-67
2022/05/06 02:35:28;;;;;;;6.53;3.87;;;;;;;13.67;70.14;100239.88;5135493;27;20193;-71
2022/05/06 02:37:55;;;;;;;5.40;3.77;;;;;;;13.61;71.02;100240.69;5135342;27;20224;-68
2022/05/06 02:40:21;;;;;;;6.20;3.70;;;;;;;13.52;71.38;100247.16;5135269;27;20193;-67
2022/05/06 02:42:48;;;;;;;8.33;4.63;;;;;;;13.47;71.60;100243.44;5134916;27;20282;-67
2022/05/06 02:45:16;;;;;;;10.27;4.00;;;;;;;13.34;71.68;100246.03;5134872;27;20225;-67
2022/05/06 02:47:43;;;;;;;5.90;4.23;;;;;;;13.33;72.06;100247.88;5135161;27;20221;-68
2022/05/06 02:50:10;;;;;;;6.53;4.60;;;;;;;13.40;71.57;100251.41;5134973;27;20197;-68
2022/05/06 02:52:37;;;;;;;9.40;4.37;;;;;;;13.45;71.87;100243.66;5134585;27;20194;-67
2022/05/06 02:55:04;;;;;;;12.97;4.70;;;;;;;13.37;72.15;100246.47;5134909;27;20194;-68
2022/05/06 02:57:31;;;;;;;5.30;4.47;;;;;;;13.38;72.28;100245.44;5134398;27;20750;-68
2022/05/06 02:59:58;;;;;;;5.10;4.03;;;;;;;13.37;72.46;100254.47;5135468;27;20193;-69
2022/05/06 03:02:26;;;;;;;6.30;4.10;;;;;;;13.37;72.85;100254.47;5134398;27;20243;-68
2022/05/06 03:04:53;;;;;;;5.30;4.27;;;;;;;13.43;72.82;100252.88;5134813;27;20190;-68
2022/05/06 03:07:20;;;;;;;6.43;4.50;;;;;;;13.49;72.82;100263.59;5135058;27;20632;-68
2022/05/06 03:09:46;;;;;;;9.50;4.70;;;;;;;13.52;72.17;100260.50;5134327;27;20186;-68
2022/05/06 03:12:13;;;;;;;5.37;4.87;;;;;;;13.47;73.07;100270.13;5134411;27;20190;-68
2022/05/06 03:14:40;;;;;;;8.73;4.90;;;;;;;13.43;74.17;100266.22;5134146;27;20194;-68
2022/05/06 03:17:06;;;;;;;6.23;5.53;;;;;;;13.48;73.79;100269.94;5134088;27;20262;-68
2022/05/06 03:19:34;;;;;;;14.47;4.63;;;;;;;13.51;73.95;100271.38;5133615;27;20190;-69
2022/05/06 03:22:01;;;;;;;5.90;5.30;;;;;;;13.44;74.90;100266.00;5134120;27;20251;-68
2022/05/06 03:24:29;;;;;;;15.37;5.70;;;;;;;13.39;74.40;100267.63;5134248;27;20222;-68
2022/05/06 03:26:55;;;;;;;7.60;5.40;;;;;;;13.38;74.59;100276.63;5134070;27;20243;-68
2022/05/06 03:29:22;;;;;;;6.17;4.87;;;;;;;13.42;74.89;100289.41;5134774;27;20258;-68
2022/05/06 03:31:49;;;;;;;8.40;5.90;;;;;;;13.44;74.53;100279.34;5133839;27;20190;-69
2022/05/06 03:34:17;;;;;;;8.47;5.30;;;;;;;13.54;75.01;100276.34;5133937;27;20734;-69
2022/05/06 03:36:45;;;;;;;11.60;5.67;;;;;;;13.67;75.09;100269.25;5133710;27;20190;-68
2022/05/06 03:39:12;;;;;;;17.40;6.27;;;;;;;13.81;74.98;100270.94;5134229;27;20243;-73
2022/05/06 03:41:38;;;;;;;8.23;5.80;;;;;;;13.93;74.77;100276.56;5133776;27;20190;-71
2022/05/06 03:44:07;;;;;;;11.60;6.83;;;;;;;14.05;74.82;100278.47;5132875;27;20282;-69
2022/05/06 03:46:34;;;;;;;11.23;6.93;;;;;;;14.19;73.90;100288.19;5133718;27;20281;-73
2022/05/06 03:49:01;;;;;;;10.20;6.37;;;;;;;14.35;73.41;100295.91;5133160;27;20221;-73
2022/05/06 03:51:28;;;;;;;14.93;8.70;;;;;;;14.38;73.16;100295.47;5133584;27;20189;-75
2022/05/06 03:53:57;;;;;;;13.97;7.60;;;;;;;14.47;73.13;100298.81;5133601;27;20233;-69
2022/05/06 03:56:25;;;;;;;10.23;5.60;;;;;;;14.86;72.88;100302.38;5133322;27;20622;-71
2022/05/06 03:58:52;;;;;;;8.63;5.47;;;;;;;15.20;71.05;100299.50;5133547;27;20190;-72
2022/05/06 04:01:19;;;;;;;28.03;6.30;;;;;;;15.38;69.11;100301.59;5133108;27;20198;-75
2022/05/06 04:03:47;;;;;;;15.20;5.73;;;;;;;15.42;68.87;100306.34;5133333;27;20218;-72
2022/05/06 04:06:14;;;;;;;9.07;4.60;;;;;;;15.41;67.71;100307.34;5133415;27;20229;-69
2022/05/06 04:08:42;;;;;;;10.20;5.20;;;;;;;15.41;66.77;100309.22;5133199;27;20604;-68
2022/05/06 04:11:10;;;;;;;11.93;5.33;;;;;;;15.43;66.97;100310.66;5132897;27;20692;-68
2022/05/06 04:13:37;;;;;;;5.00;4.67;;;;;;;15.44;66.16;100306.94;5132974;27;20262;-67
2022/05/06 04:16:04;;;;;;;7.10;5.17;;;;;;;15.36;66.20;100309.84;5133181;27;20194;-71
2022/05/06 04:18:32;;;;;;;6.97;5.00;;;;;;;15.36;65.67;100304.47;5132825;27;20186;-68
2022/05/06 04:23:42;;;;;;;6.20;4.23;;;;;;;15.36;65.22;100309.84;5133039;27;20209;-68
2022/05/06 04:26:12;;;;;;;12.83;4.33;;;;;;;15.34;65.24;100317.28;5132755;27;20243;-69
2022/05/06 04:28:40;;;;;;;5.97;4.63;;;;;;;15.37;65.43;100322.22;5132354;27;20194;-69
2022/05/06 04:31:08;;;;;;;5.10;4.80;;;;;;;15.44;65.37;100323.00;5132596;27;20190;-68
2022/05/06 04:33:35;;;;;;;6.57;5.23;;;;;;;15.42;65.24;100313.53;5132701;27;20197;-69
2022/05/06 04:36:03;;;;;;;6.33;5.43;;;;;;;15.40;65.34;100311.06;5132531;27;20186;-69
2022/05/06 04:38:31;;;;;;;16.83;5.87;;;;;;;15.40;66.43;100316.44;5132455;27;20200;-68
2022/05/06 04:40:59;;;;;;;9.00;5.70;;;;;;;15.35;66.51;100307.38;5133065;27;20194;-67
2022/05/06 04:43:28;;;;;;;7.07;5.40;;;;;;;15.28;67.19;100301.97;5132621;27;20252;-68
2022/05/06 04:45:56;;;;;;;7.30;5.53;;;;;;;15.22;68.13;100307.34;5133089;27;20258;-68
2022/05/06 04:48:23;;;;;;;12.10;6.00;;;;;;;15.04;69.20;100305.28;5133014;27;20225;-68
2022/05/06 04:50:50;;;;;;;6.70;6.10;;;;;;;15.15;69.50;100307.34;5132554;27;20216;-68
2022/05/06 04:53:17;;;;;;;10.47;6.47;;;;;;;15.27;69.26;100310.22;5132534;27;20198;-68
2022/05/06 04:55:47;;;;;;;8.93;6.60;;;;;;;15.28;69.58;100307.34;5136128;27;20189;-68
2022/05/06 04:58:14;;;;;;;12.90;6.27;;;;;;;15.29;69.72;100308.16;5136452;27;20193;-68
2022/05/06 05:00:42;;;;;;;9.37;5.80;;;;;;;15.41;69.65;100320.75;5136210;27;20246;-69
2022/05/06 05:03:09;;;;;;;12.57;7.27;;;;;;;15.51;69.77;100326.53;5136703;27;20221;-68
2022/05/06 05:05:36;;;;;;;6.10;5.70;;;;;;;15.50;68.42;100324.88;5136464;27;20194;-68
2022/05/06 05:08:03;;;;;;;8.67;5.90;;;;;;;15.65;68.40;100320.09;5136704;27;20577;-67
2022/05/06 05:10:30;;;;;;;6.27;5.67;;;;;;;15.67;68.00;100327.94;5135935;27;20662;-67
2022/05/06 05:12:57;;;;;;;6.23;5.60;;;;;;;15.77;66.86;100334.50;5136014;27;20230;-68
2022/05/06 05:15:23;;;;;;;7.60;5.17;;;;;;;15.74;66.37;100332.28;5135818;27;20243;-68
2022/05/06 05:17:51;;;;;;;5.20;4.80;;;;;;;15.90;66.51;100331.81;5136699;27;20636;-67
2022/05/06 05:20:18;;;;;;;7.03;5.43;;;;;;;16.09;65.65;100338.16;5136194;27;20262;-67
2022/05/06 05:22:45;;;;;;;5.90;5.17;;;;;;;16.18;64.51;100330.72;5136422;27;20266;-70
2022/05/06 05:25:12;;;;;;;8.50;5.67;;;;;;;16.37;63.42;100344.03;5136189;27;20689;-68
2022/05/06 05:27:39;;;;;;;7.77;5.57;;;;;;;16.53;61.48;100346.25;5136455;27;20276;-70
2022/05/06 05:30:08;;;;;;;15.97;6.83;;;;;;;16.51;60.22;100348.34;5135867;27;20193;-68
2022/05/06 05:32:36;;;;;;;6.00;5.60;;;;;;;16.72;60.76;100355.25;5133151;27;20193;-68
2022/05/06 05:35:04;;;;;;;6.07;5.67;;;;;;;16.90;59.91;100350.00;5135740;27;20219;-72
2022/05/06 05:37:31;;;;;;;5.47;4.97;;;;;;;17.44;58.20;100353.75;5135510;27;20252;-72
2022/05/06 05:39:58;;;;;;;7.13;4.97;;;;;;;17.62;57.08;100355.66;5135653;27;20201;-72
2022/05/06 05:42:27;;;;;;;11.10;5.53;;;;;;;17.74;55.67;100356.59;5135550;27;20714;-71
2022/05/06 05:50:26;;;;;;;9.97;5.33;;;;;;;17.80;56.61;100355.72;5135384;27;20191;-68
2022/05/06 05:52:53;;;;;;;10.13;3.73;;;;;;;18.12;60.15;100351.84;5136101;27;20180;-66
2022/05/06 05:55:20;;;;;;;9.83;5.77;;;;;;;18.81;57.04;100357.66;5135667;27;20198;-68
2022/05/06 05:57:47;;;;;;;11.33;6.10;;;;;;;19.20;56.23;100359.78;5135117;27;20728;-71
2022/05/06 06:00:14;;;;;;;18.87;6.20;;;;;;;19.15;55.51;100355.06;5135166;27;20249;-68
2022/05/06 06:02:41;;;;;;;7.07;6.40;;;;;;;19.11;53.79;100361.97;5135326;27;20256;-71
2022/05/06 06:05:08;;;;;;;11.00;6.90;;;;;;;19.27;53.57;100363.19;5135828;27;20276;-68
2022/05/06 06:07:36;;;;;;;11.03;6.10;;;;;;;19.34;52.98;100369.31;5134464;27;20730;-66
2022/05/06 06:10:04;;;;;;;11.30;6.70;;;;;;;19.34;53.16;100363.94;5135247;27;20654;-69
2022/05/06 06:12:30;;;;;;;8.30;6.57;;;;;;;19.34;53.07;100358.53;5134811;27;20232;-69
2022/05/06 06:14:57;;;;;;;11.53;6.77;;;;;;;19.60;52.32;100361.63;5134628;27;20198;-69
2022/05/06 06:17:24;;;;;;;7.50;5.73;;;;;;;19.93;55.08;100361.84;5134966;27;20246;-76
2022/05/06 06:19:50;;;;;;;9.13;5.97;;;;;;;20.31;54.04;100364.09;5135085;27;20193;-75
2022/05/06 06:22:17;;;;;;;13.77;5.97;;;;;;;20.89;50.53;100372.00;5134917;27;20662;-74
2022/05/06 06:24:45;;;;;;;7.37;5.70;;;;;;;21.31;47.30;100368.75;5134581;27;20221;-77
2022/05/06 06:27:12;;;;;;;6.67;5.50;;;;;;;21.49;45.35;100373.94;5134058;27;20246;-77
2022/05/06 06:29:38;;;;;;;7.07;5.17;;;;;;;21.47;46.30;100365.25;5134276;27;20235;-74
2022/05/06 06:32:06;;;;;;;6.37;5.60;;;;;;;21.47;45.24;100359.03;5133770;27;20202;-74
2022/05/06 06:34:33;;;;;;;7.53;5.83;;;;;;;21.59;44.82;100368.69;5114115;28;20251;-69
2022/05/06 06:36:59;;;;;;;5.93;5.37;;;;;;;21.50;44.35;100358.53;5113835;28;20202;-67
2022/05/06 06:39:26;;;;;;;7.30;5.37;;;;;;;21.37;44.80;100362.38;5113911;28;20678;-68
2022/05/06 06:41:54;;;;;;;6.43;4.83;;;;;;;21.07;44.58;100353.72;5132835;27;20250;-67
2022/05/06 06:44:21;;;;;;;13.67;6.10;;;;;;;20.98;44.84;100352.50;5133320;27;20941;-68
2022/05/06 06:46:48;;;;;;;9.57;4.90;;;;;;;21.11;45.07;100349.47;5132515;27;20216;-67
2022/05/06 06:49:15;;;;;;;5.40;5.00;;;;;;;21.28;43.49;100350.34;5132234;27;20229;-69
2022/05/06 06:51:41;;;;;;;7.43;5.47;;;;;;;21.28;44.50;100353.03;5132064;27;20221;-69
2022/05/06 06:54:08;;;;;;;14.60;5.70;;;;;;;21.42;44.84;100358.94;5132181;27;20198;-70
2022/05/06 06:56:35;;;;;;;6.47;5.30;;;;;;;21.51;43.91;100354.78;5132073;27;20243;-69
2022/05/06 06:59:03;;;;;;;9.67;5.53;;;;;;;21.62;44.28;100353.84;5132204;27;20229;-70
2022/05/06 07:01:32;;;;;;;11.03;5.50;;;;;;;21.58;44.02;100356.25;5132477;27;20197;-72
2022/05/06 07:04:00;;;;;;;8.93;5.83;;;;;;;21.83;44.53;100355.81;5133453;27;20225;-69
2022/05/06 07:11:55;;;;;;;13.90;5.60;;;;;;;22.67;42.17;100345.34;5134147;27;20177;-68
2022/05/06 07:14:25;;;;;;;6.40;5.93;;;;;;;22.84;41.51;100346.09;5134164;27;20190;-70
2022/05/06 07:16:53;;;;;;;6.67;6.07;;;;;;;22.70;42.05;100338.63;5134180;27;20190;-69
2022/05/06 07:19:21;;;;;;;8.57;6.13;;;;;;;22.80;42.28;100344.97;5130563;27;20232;-68
2022/05/06 07:21:49;;;;;;;6.93;6.33;;;;;;;22.41;42.93;100340.66;5122022;27;20582;-70
2022/05/06 07:24:17;;;;;;;7.53;6.93;;;;;;;22.43;43.08;100346.66;5113533;27;20223;-68
2022/05/06 07:26:43;;;;;;;10.60;5.80;;;;;;;22.67;43.56;100339.13;5113846;27;20199;-71
2022/05/06 07:29:10;;;;;;;7.30;5.57;;;;;;;23.07;42.08;100340.34;5111601;28;20559;-67
2022/05/06 07:31:38;;;;;;;28.83;6.33;;;;;;;23.40;42.00;100340.13;5113101;27;20690;-72
2022/05/06 07:34:05;;;;;;;7.67;6.13;;;;;;;23.45;39.95;100336.66;5111086;28;20245;-73
2022/05/06 07:36:32;;;;;;;5.93;5.37;;;;;;;23.28;40.12;100334.06;5111987;28;20191;-71
2022/05/06 07:38:59;;;;;;;9.33;6.03;;;;;;;23.11;41.01;100319.00;5113134;27;20226;-78
2022/05/06 07:41:26;;;;;;;7.40;5.50;;;;;;;23.20;41.06;100326.41;5121437;27;20244;-70
2022/05/06 07:43:53;;;;;;;8.90;6.10;;;;;;;23.32;39.83;100329.75;5112165;28;20557;-72
2022/05/06 07:46:20;;;;;;;13.23;6.13;;;;;;;23.57;39.89;100329.97;5110678;28;20197;-70
2022/05/06 07:48:48;;;;;;;8.67;8.07;;;;;;;23.57;39.75;100329.16;5110990;28;20224;-70
2022/05/06 07:51:14;;;;;;;6.07;5.63;;;;;;;23.63;39.22;100328.94;5111363;28;20614;-73
2022/05/06 07:53:41;;;;;;;15.23;6.20;;;;;;;23.61;39.98;100336.50;5128586;27;20199;-68
2022/05/06 07:56:08;;;;;;;7.57;5.53;;;;;;;23.63;39.86;100333.53;5131156;27;20202;-69
2022/05/06 07:58:35;;;;;;;5.97;5.00;;;;;;;23.05;41.00;100337.09;5131416;27;20202;-68
2022/05/06 08:01:01;;;;;;;10.73;5.73;;;;;;;22.86;41.63;100333.09;5130758;27;20731;-77
2022/05/06 08:06:14;;;;;;;15.40;6.03;;;;;;;22.60;41.82;100339.31;5131211;27;20173;-72
2022/05/06 08:08:41;;;;;;;7.70;5.27;;;;;;;22.42;43.56;100336.09;5131372;27;20190;-75
2022/05/06 08:11:08;;;;;;;6.37;5.07;;;;;;;22.42;43.25;100336.09;5131046;27;20246;-70
2022/05/06 08:13:35;;;;;;;6.37;5.77;;;;;;;22.23;45.23;100337.47;5131132;27;20186;-73
2022/05/06 08:16:01;;;;;;;7.57;5.40;;;;;;;22.24;45.62;100333.66;5131363;27;20258;-73
2022/05/06 08:18:29;;;;;;;7.80;5.90;;;;;;;22.21;44.28;100340.41;5130423;27;20190;-73
2022/05/06 08:20:55;;;;;;;8.60;6.03;;;;;;;22.30;43.65;100338.09;5131208;27;20277;-75
2022/05/06 08:23:24;;;;;;;22.07;6.27;;;;;;;22.51;43.76;100340.84;5131282;27;20825;-72
2022/05/06 08:25:52;;;;;;;14.67;6.37;;;;;;;22.79;44.12;100337.88;5131108;27;20214;-73
2022/05/06 08:28:19;;;;;;;10.87;7.07;;;;;;;22.92;45.02;100332.09;5128217;27;20678;-73
2022/05/06 08:30:47;;;;;;;32.37;20.40;;;;;;;23.19;43.48;100332.06;5112967;27;20197;-73
2022/05/06 08:33:14;;;;;;;19.20;6.77;;;;;;;23.10;41.34;100339.84;5112607;27;20251;-72
2022/05/06 08:35:41;;;;;;;20.80;6.83;;;;;;;23.29;42.79;100337.59;5128522;27;20190;-72
2022/05/06 08:38:08;;;;;;;9.30;6.93;;;;;;;23.43;40.82;100339.63;5124463;27;20248;-72
2022/05/06 08:40:37;;;;;;;7.00;6.40;;;;;;;23.70;40.49;100340.38;5118477;27;20548;-72
2022/05/06 08:43:04;;;;;;;14.57;6.80;;;;;;;23.56;40.94;100333.75;5130775;27;20195;-71
2022/05/06 08:51:04;;;;;;;6.53;5.90;;;;;;;24.56;38.96;100331.63;5118340;27;20188;-68
2022/05/06 08:53:32;;;;;;;6.70;5.30;;;;;;;24.73;39.09;100328.72;5130690;28;20197;-70
2022/05/06 08:56:02;;;;;;;6.90;4.77;;;;;;;25.04;37.15;100325.78;5131748;28;20196;-70
2022/05/06 08:58:33;;;;;;;5.97;5.57;;;;;;;25.02;36.90;100323.63;5132485;28;20232;-68
2022/05/06 09:01:05;;;;;;;7.03;5.67;;;;;;;25.08;36.20;100326.09;5131914;27;20181;-68
2022/05/06 09:03:31;;;;;;;6.03;5.50;;;;;;;25.52;36.81;100320.94;5138357;27;20245;-67
2022/05/06 09:05:59;;;;;;;6.43;5.20;;;;;;;26.08;35.39;100325.22;5124451;28;20782;-67
2022/05/06 09:08:37;;;;;;;5.63;5.23;;;;;;;26.42;33.59;100315.28;5132661;27;20190;-67
2022/05/06 09:11:07;;;;;;;21.00;6.43;;;;;;;26.65;34.88;100309.19;5132309;27;20188;-67
2022/05/06 09:13:36;;;;;;;6.23;5.73;;;;;;;26.13;33.89;100322.50;5130800;27;20922;-66
2022/05/06 09:16:39;;;;;;;6.10;5.60;;;;;;;25.90;34.54;100317.63;5131206;27;20284;-69
2022/05/06 09:19:11;;;;;;;6.93;5.43;;;;;;;25.69;36.25;100302.41;5130874;27;20194;-67
2022/05/06 09:21:38;;;;;;;6.33;5.73;;;;;;;25.51;35.88;100297.56;5130601;27;20193;-65
2022/05/06 09:24:18;;;;;;;10.53;5.83;;;;;;;25.56;37.01;100292.91;5130303;27;20198;-69
2022/05/06 09:27:00;;;;;;;6.23;5.30;;;;;;;25.89;38.36;100288.75;5130209;27;20571;-66
2022/05/06 09:29:27;;;;;;;8.37;5.43;;;;;;;26.27;33.33;100285.38;5140294;27;20245;-67
2022/05/06 09:31:56;;;;;;;5.70;5.30;;;;;;;26.32;33.12;100282.63;5131371;28;20194;-70
2022/05/06 09:34:28;;;;;;;6.27;5.77;;;;;;;26.23;33.88;100287.84;5130442;27;20190;-70
2022/05/06 09:36:55;;;;;;;6.30;5.17;;;;;;;26.38;33.27;100276.06;5130310;28;20189;-70
2022/05/06 09:39:22;;;;;;;9.03;5.47;;;;;;;26.48;34.05;100263.22;5130049;28;20258;-69
2022/05/06 09:42:01;;;;;;;9.00;5.47;;;;;;;26.46;34.03;100267.31;5132167;27;20198;-70
2022/05/06 09:44:30;;;;;;;5.87;5.27;;;;;;;26.40;33.77;100265.69;5134404;27;20190;-71
2022/05/06 09:47:09;;;;;;;6.60;6.00;;;;;;;26.22;33.59;100260.91;5134098;27;20285;-71
2022/05/06 09:49:43;;;;;;;5.60;5.07;;;;;;;26.16;34.87;100262.81;5134583;27;20182;-72
2022/05/06 09:52:11;;;;;;;7.07;5.57;;;;;;;26.35;34.73;100260.28;5149090;27;20234;-70
2022/05/06 09:54:39;;;;;;;5.30;4.80;;;;;;;26.33;33.80;100254.31;5154812;27;20197;-69
2022/05/06 09:57:06;;;;;;;6.70;5.97;;;;;;;26.34;33.97;100256.72;5154704;27;20185;-69
2022/05/06 09:59:35;;;;;;;5.50;5.13;;;;;;;26.46;33.47;100248.25;5154710;27;20189;-71
2022/05/06 10:02:03;;;;;;;5.33;4.93;;;;;;;26.59;33.42;100253.09;5154594;27;20189;-72
2022/05/06 10:04:30;;;;;;;7.47;4.90;;;;;;;26.67;32.92;100247.88;5146952;27;20190;-72
2022/05/06 10:07:00;;;;;;;9.60;5.33;;;;;;;26.61;33.18;100237.25;5129900;27;20259;-69
2022/05/06 10:09:28;;;;;;;5.67;5.10;;;;;;;26.62;32.21;100245.16;5114731;28;20179;-70
2022/05/06 10:11:59;;;;;;;6.30;5.20;;;;;;;26.57;33.46;100233.44;5112330;28;20194;-72
2022/05/06 10:14:27;;;;;;;9.67;5.57;;;;;;;26.52;33.79;100236.19;5113813;28;20270;-73
2022/05/06 10:16:55;;;;;;;5.80;5.40;;;;;;;26.53;33.85;100237.81;5113030;28;20195;-77
2022/05/06 10:19:26;;;;;;;5.63;4.80;;;;;;;26.60;32.86;100231.00;5114420;28;20733;-77
2022/05/06 10:21:54;;;;;;;5.27;4.97;;;;;;;26.38;33.28;100222.38;5114004;28;20278;-76
2022/05/06 10:24:21;;;;;;;7.83;5.17;;;;;;;26.14;34.03;100226.88;5113715;28;20186;-75
2022/05/06 10:26:48;;;;;;;5.10;4.60;;;;;;;26.18;34.30;100222.50;5113905;28;20226;-76
2022/05/06 10:32:54;;;;;;;4.80;4.37;;;;;;;26.08;33.39;100216.28;5112269;28;20240;-76
2022/05/06 10:35:39;;;;;;;7.03;4.80;;;;;;;26.16;34.27;100212.97;5112233;28;20244;-76
2022/05/06 10:38:21;;;;;;;5.00;4.60;;;;;;;26.37;33.59;100214.50;5112158;28;20215;-77
2022/05/06 10:40:54;;;;;;;5.17;4.33;;;;;;;25.89;33.29;100207.88;5122168;27;20190;-71
2022/05/06 10:43:54;;;;;;;5.50;3.87;;;;;;;25.88;32.38;100205.47;5133111;27;20638;-70
2022/05/06 10:46:35;;;;;;;4.30;3.90;;;;;;;26.14;32.04;100205.09;5132264;27;20893;-72
2022/05/06 10:49:39;;;;;;;3.80;3.60;;;;;;;26.18;30.45;100200.72;5132513;27;20226;-71
2022/05/06 10:52:41;;;;;;;3.77;2.73;;;;;;;25.96;29.76;100194.81;5121682;27;20200;-72
2022/05/06 10:55:12;;;;;;;10.37;7.33;;;;;;;25.89;28.57;100185.31;5132774;27;20197;-76
2022/05/06 10:58:04;;;;;;;25.30;10.70;;;;;;;25.51;29.59;100188.72;5132429;27;20188;-77
2022/05/06 11:00:33;;;;;;;5.50;4.13;;;;;;;25.79;29.50;100179.88;5130702;27;20193;-72
2022/05/06 11:02:59;;;;;;;4.67;2.97;;;;;;;25.99;30.25;100177.09;5133791;27;20590;-72
2022/05/06 11:05:29;;;;;;;23.57;10.67;;;;;;;25.96;31.02;100161.34;5134525;27;20282;-71
2022/05/06 11:08:00;;;;;;;3.97;3.27;;;;;;;25.83;31.52;100164.63;5133770;27;20704;-70
2022/05/06 11:10:28;;;;;;;9.93;6.33;;;;;;;25.86;30.10;100164.06;5133891;27;20248;-72
2022/05/06 11:12:57;;;;;;;3.20;3.00;;;;;;;25.91;28.20;100173.03;5133799;27;20193;-70
2022/05/06 11:15:28;;;;;;;6.43;3.00;;;;;;;26.05;29.82;100156.94;5133900;27;20284;-71
2022/05/06 11:17:57;;;;;;;4.63;3.40;;;;;;;25.50;29.35;100148.97;5134387;27;20239;-74
2022/05/06 11:20:27;;;;;;;2.90;2.70;;;;;;;25.75;28.11;100152.41;5134169;27;20276;-71
2022/05/06 11:22:55;;;;;;;4.63;3.10;;;;;;;25.95;29.27;100141.47;5133940;27;20263;-71
2022/05/06 11:25:24;;;;;;;4.83;3.10;;;;;;;26.11;29.33;100148.47;5133968;27;20218;-72
2022/05/06 11:27:53;;;;;;;3.40;2.57;;;;;;;26.36;27.49;100133.84;5134021;27;20254;-71
2022/05/06 11:30:21;;;;;;;3.10;2.70;;;;;;;26.02;26.49;100144.69;5134138;27;20198;-73
2022/05/06 11:32:50;;;;;;;2.93;2.40;;;;;;;25.91;27.84;100136.81;5133632;27;20716;-72
2022/05/06 11:35:21;;;;;;;3.30;2.77;;;;;;;25.70;28.17;100135.28;5133391;27;20558;-74
2022/05/06 11:37:48;;;;;;;3.57;2.63;;;;;;;25.76;27.58;100134.19;5134118;27;20194;-69
2022/05/06 11:40:34;;;;;;;6.90;3.00;;;;;;;25.79;29.62;100128.16;5133782;27;20186;-63
2022/05/06 11:43:06;;;;;;;3.03;2.63;;;;;;;26.06;29.00;100134.03;5133688;27;20238;-63
2022/05/06 11:48:20;;;;;;;6.40;3.20;;;;;;;25.80;30.47;100116.19;5133450;27;20586;-62
2022/05/06 11:50:51;;;;;;;2.73;2.57;;;;;;;25.95;28.09;100124.31;5139973;27;20217;-65
2022/05/06 11:53:19;;;;;;;2.87;2.60;;;;;;;26.01;28.67;100123.97;5122013;27;20190;-67
2022/05/06 11:55:47;;;;;;;4.57;2.63;;;;;;;25.76;27.64;100115.94;5111855;27;20283;-65
2022/05/06 11:58:17;;;;;;;3.50;2.33;;;;;;;25.80;28.76;100113.47;5109882;27;20743;-65
2022/05/06 12:00:50;;;;;;;2.70;2.50;;;;;;;25.91;26.61;100112.31;5109449;27;20235;-65
2022/05/06 12:03:19;;;;;;;3.23;2.90;;;;;;;25.99;27.43;100104.41;5109139;28;20709;-66
2022/05/06 12:05:59;;;;;;;7.73;7.10;;;;;;;25.49;26.94;100103.81;5106770;28;20612;-70